C2015 KOPF-KOPF
Flight info
| Callsign | C2015 |
|---|---|
| Flight time | N/A |
| Altitude | 5500 |
| Route | VFR |
| Aircraft | C30J/M-SDGRY/LB1 |
Departure
| Time | 2026-04-24 23:58 |
|---|---|
| Airport | Miami-Opa Locka Executive Airport (KOPF) |
Arrival
| Time | N/A |
|---|---|
| Airport | Miami-Opa Locka Executive Airport (KOPF) |
| Time | Latitude | Longitude | Altitude | Speed | Heading |
|---|---|---|---|---|---|
| 2026-04-24 23:58 | 26.00418 | -80.10347 | 5509 ft | 239 kts | 3° |
| 2026-04-24 23:58 | 26.02085 | -80.10201 | 5499 ft | 240 kts | 3° |
| 2026-04-24 23:58 | 26.03736 | -80.10062 | 5500 ft | 238 kts | 2° |
| 2026-04-24 23:59 | 26.05389 | -80.09918 | 5502 ft | 240 kts | 3° |
| 2026-04-24 23:59 | 26.07030 | -80.09778 | 5502 ft | 240 kts | 2° |
| 2026-04-24 23:59 | 26.08692 | -80.09637 | 5504 ft | 237 kts | 2° |
| 2026-04-24 23:59 | 26.10349 | -80.09463 | 5495 ft | 239 kts | 6° |
| 2026-04-25 00:00 | 26.11999 | -80.09171 | 5498 ft | 238 kts | 8° |
| 2026-04-25 00:00 | 26.13638 | -80.08895 | 5500 ft | 238 kts | 7° |
| 2026-04-25 00:00 | 26.15262 | -80.08624 | 5501 ft | 240 kts | 7° |
| 2026-04-25 00:00 | 26.16910 | -80.08353 | 5513 ft | 240 kts | 6° |
| 2026-04-25 00:01 | 26.18555 | -80.08075 | 5515 ft | 241 kts | 7° |
| 2026-04-25 00:01 | 26.20207 | -80.07800 | 5513 ft | 239 kts | 7° |
| 2026-04-25 00:01 | 26.21846 | -80.07530 | 5520 ft | 238 kts | 7° |
| 2026-04-25 00:01 | 26.23497 | -80.07257 | 5520 ft | 241 kts | 7° |
| 2026-04-25 00:02 | 26.25158 | -80.06995 | 5525 ft | 240 kts | 7° |
| 2026-04-25 00:02 | 26.26816 | -80.06733 | 5520 ft | 240 kts | 7° |
| 2026-04-25 00:02 | 26.28477 | -80.06470 | 5518 ft | 241 kts | 7° |
| 2026-04-25 00:02 | 26.30118 | -80.06212 | 5508 ft | 229 kts | 7° |
| 2026-04-25 00:03 | 26.31628 | -80.05968 | 5515 ft | 219 kts | 7° |
| 2026-04-25 00:03 | 26.33115 | -80.05621 | 5520 ft | 219 kts | 14° |
| 2026-04-25 00:03 | 26.34577 | -80.05114 | 5525 ft | 219 kts | 17° |
| 2026-04-25 00:03 | 26.36024 | -80.04582 | 5522 ft | 219 kts | 18° |
| 2026-04-25 00:04 | 26.37470 | -80.04049 | 5516 ft | 218 kts | 17° |
| 2026-04-25 00:04 | 26.38910 | -80.03520 | 5519 ft | 218 kts | 17° |
| 2026-04-25 00:04 | 26.40355 | -80.02986 | 5516 ft | 219 kts | 17° |
| 2026-04-25 00:04 | 26.41805 | -80.02454 | 5521 ft | 219 kts | 17° |
| 2026-04-25 00:05 | 26.43247 | -80.01923 | 5517 ft | 219 kts | 18° |